createdAt,value
2022-09-10T00:01:37.066Z,12.26
2022-09-10T00:04:11.610Z,12.27
2022-09-10T00:06:39.994Z,12.27
2022-09-10T00:09:08.157Z,12.26
2022-09-10T00:11:39.440Z,12.28
2022-09-10T00:14:12.169Z,12.28
2022-09-10T00:16:41.419Z,12.26
2022-09-10T00:19:09.554Z,12.25
2022-09-10T00:21:38.021Z,12.27
2022-09-10T00:24:07.056Z,12.29
2022-09-10T00:26:40.050Z,12.31
2022-09-10T00:29:10.742Z,12.32
2022-09-10T00:31:40.029Z,12.33
2022-09-10T00:34:09.337Z,12.34
2022-09-10T00:36:40.446Z,12.35
2022-09-10T00:39:14.580Z,12.36
2022-09-10T00:41:44.950Z,12.36
2022-09-10T00:44:41.674Z,12.34
2022-09-10T00:47:19.550Z,12.33
2022-09-10T00:49:53.333Z,12.31
2022-09-10T00:52:21.527Z,12.31
2022-09-10T00:54:50.150Z,12.31
2022-09-10T00:57:22.233Z,12.32
2022-09-10T00:59:58.237Z,12.33
2022-09-10T01:02:26.469Z,12.31
2022-09-10T01:04:56.333Z,12.34
2022-09-10T01:07:29.320Z,12.33
2022-09-10T01:10:00.114Z,12.34
2022-09-10T01:12:39.284Z,12.33
2022-09-10T01:15:22.236Z,12.33
2022-09-10T01:18:03.778Z,12.33
2022-09-10T01:20:56.776Z,12.32
2022-09-10T01:23:27.870Z,12.31
2022-09-10T01:26:33.323Z,12.32
2022-09-10T01:29:04.029Z,12.31
2022-09-10T01:31:51.094Z,12.31
2022-09-10T01:34:24.224Z,12.31
2022-09-10T01:36:56.443Z,12.31
2022-09-10T01:39:26.036Z,12.31
2022-09-10T01:41:55.841Z,12.30
2022-09-10T01:44:47.580Z,12.30
2022-09-10T01:47:30.045Z,12.31
2022-09-10T01:50:24.236Z,12.31
2022-09-10T01:53:05.354Z,12.33
2022-09-10T01:55:42.020Z,12.35
2022-09-10T01:58:17.210Z,12.37
2022-09-10T02:01:03.448Z,12.37
2022-09-10T02:03:33.267Z,12.37
2022-09-10T02:06:03.182Z,12.37
2022-09-10T02:08:39.415Z,12.37
2022-09-10T02:11:12.000Z,12.36
2022-09-10T02:13:42.941Z,12.36
2022-09-10T02:16:31.323Z,12.35
2022-09-10T02:19:01.710Z,12.33
2022-09-10T02:21:32.451Z,12.31
2022-09-10T02:24:10.154Z,12.29
2022-09-10T02:26:41.592Z,12.28
2022-09-10T02:29:11.652Z,12.28
2022-09-10T02:31:40.904Z,12.25
2022-09-10T02:34:08.982Z,12.26
2022-09-10T02:36:37.764Z,12.25
2022-09-10T02:39:05.934Z,12.23
2022-09-10T02:41:35.127Z,12.23
2022-09-10T02:44:04.947Z,12.22
2022-09-10T02:46:33.143Z,12.22
2022-09-10T02:49:01.187Z,12.19
2022-09-10T02:51:31.031Z,12.17
2022-09-10T02:53:59.784Z,12.16
2022-09-10T02:56:27.756Z,12.17
2022-09-10T02:58:56.233Z,12.17
2022-09-10T03:01:24.649Z,12.17
2022-09-10T03:04:01.286Z,12.19
2022-09-10T03:06:30.378Z,12.20
2022-09-10T03:08:59.780Z,12.21
2022-09-10T03:11:28.183Z,12.23
2022-09-10T03:13:56.386Z,12.21
2022-09-10T03:16:24.622Z,12.18
2022-09-10T03:18:52.776Z,12.15
2022-09-10T03:21:25.296Z,12.14
2022-09-10T03:23:56.890Z,12.13
2022-09-10T03:26:27.444Z,12.12
2022-09-10T03:28:55.668Z,12.12
2022-09-10T03:31:27.435Z,12.13
2022-09-10T03:33:55.641Z,12.10
2022-09-10T03:36:23.818Z,12.11
2022-09-10T03:38:51.989Z,12.11
2022-09-10T03:41:20.159Z,12.10
2022-09-10T03:43:49.480Z,12.08
2022-09-10T03:46:17.631Z,12.07
2022-09-10T03:48:46.121Z,12.07
2022-09-10T03:51:15.859Z,12.08
2022-09-10T03:53:44.144Z,12.05
2022-09-10T03:56:12.268Z,12.08
2022-09-10T03:58:40.818Z,12.08
2022-09-10T04:01:09.686Z,12.09
2022-09-10T04:03:37.942Z,12.07
2022-09-10T04:06:10.438Z,12.05
2022-09-10T04:08:39.567Z,12.04
2022-09-10T04:11:10.431Z,12.03
2022-09-10T04:13:38.697Z,12.03
2022-09-10T04:16:07.430Z,12.03
2022-09-10T04:18:35.923Z,12.03
2022-09-10T04:21:04.613Z,12.05
2022-09-10T04:23:33.436Z,12.05
2022-09-10T04:26:15.483Z,12.04
2022-09-10T04:28:45.672Z,12.03
2022-09-10T04:31:14.324Z,12.03
2022-09-10T04:33:42.822Z,12.04
2022-09-10T04:36:12.944Z,12.05
2022-09-10T04:38:42.252Z,12.06
2022-09-10T04:41:15.609Z,12.08
2022-09-10T04:43:44.246Z,12.10
2022-09-10T04:46:12.524Z,12.11
2022-09-10T04:48:43.330Z,12.11
2022-09-10T04:51:17.716Z,12.11
2022-09-10T04:53:52.475Z,12.10
2022-09-10T04:56:23.184Z,12.09
2022-09-10T04:58:51.934Z,12.10
2022-09-10T05:01:20.547Z,12.03
2022-09-10T05:03:52.501Z,12.01
2022-09-10T05:06:20.807Z,12.01
2022-09-10T05:08:50.845Z,11.99
2022-09-10T05:11:21.868Z,12.00
2022-09-10T05:13:49.829Z,12.00
2022-09-10T05:16:21.394Z,12.01
2022-09-10T05:18:49.489Z,12.01
2022-09-10T05:21:18.559Z,12.03
2022-09-10T05:23:46.926Z,12.06
2022-09-10T05:26:15.555Z,12.08
2022-09-10T05:28:43.681Z,12.10
2022-09-10T05:31:16.808Z,12.11
2022-09-10T05:33:46.416Z,12.09
2022-09-10T05:36:14.903Z,12.09
2022-09-10T05:38:46.015Z,12.10
2022-09-10T05:41:15.196Z,12.08
2022-09-10T05:43:47.850Z,12.09
2022-09-10T05:46:16.373Z,12.11
2022-09-10T05:48:47.561Z,12.12
2022-09-10T05:51:16.422Z,12.14
2022-09-10T05:53:45.207Z,12.17
2022-09-10T05:56:13.349Z,12.20
2022-09-10T05:58:45.244Z,12.21
2022-09-10T06:01:15.635Z,12.23
2022-09-10T06:03:45.417Z,12.24
2022-09-10T06:06:13.621Z,12.29
2022-09-10T06:08:54.059Z,12.34
2022-09-10T06:11:36.040Z,12.38
2022-09-10T06:14:04.045Z,12.39
2022-09-10T06:16:33.952Z,12.45
2022-09-10T06:19:03.259Z,12.48
2022-09-10T06:21:31.327Z,12.50
2022-09-10T06:23:59.396Z,12.52
2022-09-10T06:26:29.707Z,12.55
2022-09-10T06:29:01.068Z,12.57
2022-09-10T06:31:29.557Z,12.60
2022-09-10T06:33:57.927Z,12.63
2022-09-10T06:36:29.501Z,12.64
2022-09-10T06:38:58.248Z,12.64
2022-09-10T06:41:27.121Z,12.64
2022-09-10T06:44:10.287Z,12.66
2022-09-10T06:47:35.889Z,12.66
2022-09-10T06:49:43.389Z,12.69
2022-09-10T06:52:12.204Z,12.71
2022-09-10T06:54:40.554Z,12.74
2022-09-10T06:57:30.648Z,12.75
2022-09-10T06:59:59.028Z,12.76
2022-09-10T07:02:27.321Z,12.79
2022-09-10T07:04:55.410Z,12.80
2022-09-10T07:07:23.538Z,12.81
2022-09-10T07:09:52.084Z,12.84
2022-09-10T07:12:21.623Z,12.87
2022-09-10T07:14:50.205Z,12.89
2022-09-10T07:17:21.115Z,12.91
2022-09-10T07:19:49.154Z,12.94
2022-09-10T07:22:24.552Z,12.95
2022-09-10T07:24:55.398Z,12.97
2022-09-10T07:27:29.911Z,12.96
2022-09-10T07:29:59.209Z,13.00
2022-09-10T07:32:27.281Z,13.04
2022-09-10T07:35:09.275Z,13.04
2022-09-10T07:37:39.339Z,13.04
2022-09-10T07:40:08.550Z,13.06
2022-09-10T07:42:37.604Z,13.09
2022-09-10T07:45:07.324Z,13.09
2022-09-10T07:47:36.595Z,13.08
2022-09-10T07:50:05.724Z,13.08
2022-09-10T07:52:34.656Z,13.07
2022-09-10T07:55:02.883Z,13.05
2022-09-10T07:57:31.436Z,13.05
2022-09-10T08:00:00.941Z,13.08
2022-09-10T08:02:44.212Z,13.09
2022-09-10T08:05:17.152Z,13.07
2022-09-10T08:07:45.544Z,13.08
2022-09-10T08:10:13.702Z,13.13
2022-09-10T08:12:42.875Z,13.17
2022-09-10T08:15:11.632Z,13.19
2022-09-10T08:17:40.914Z,13.26
2022-09-10T08:20:10.151Z,13.31
2022-09-10T08:22:39.741Z,13.35
2022-09-10T08:25:08.706Z,13.37
2022-09-10T08:27:37.512Z,13.38
2022-09-10T08:30:08.092Z,13.36
2022-09-10T08:32:36.561Z,13.34
2022-09-10T08:35:05.976Z,13.33
2022-09-10T08:37:34.611Z,13.32
2022-09-10T08:40:05.565Z,13.34
2022-09-10T08:42:46.885Z,13.36
2022-09-10T08:45:21.141Z,13.38
2022-09-10T08:48:06.757Z,13.42
2022-09-10T08:50:42.109Z,13.46
2022-09-10T08:53:44.081Z,13.48
2022-09-10T08:56:19.935Z,13.49
2022-09-10T08:59:00.503Z,13.55
2022-09-10T09:01:42.882Z,13.61
2022-09-10T09:04:35.997Z,13.67
2022-09-10T09:07:15.562Z,13.73
2022-09-10T09:09:44.288Z,13.79
2022-09-10T09:12:39.410Z,13.84
2022-09-10T09:15:25.900Z,13.87
2022-09-10T09:18:00.830Z,13.88
2022-09-10T09:20:45.701Z,13.92
2022-09-10T09:23:20.213Z,13.94
2022-09-10T09:25:59.579Z,13.96
2022-09-10T09:28:46.778Z,13.97
2022-09-10T09:31:28.693Z,14.01
2022-09-10T09:34:07.367Z,14.00
2022-09-10T09:36:46.256Z,13.99
2022-09-10T09:39:25.636Z,13.97
2022-09-10T09:42:21.974Z,13.96
2022-09-10T09:45:32.295Z,13.96
2022-09-10T09:48:00.698Z,13.97
2022-09-10T09:50:32.000Z,13.96
2022-09-10T09:53:00.035Z,13.99
2022-09-10T09:55:38.964Z,14.05
2022-09-10T09:58:22.074Z,14.14
2022-09-10T10:00:53.224Z,14.23
2022-09-10T10:03:33.892Z,14.29
2022-09-10T10:06:10.605Z,14.35
2022-09-10T10:08:41.696Z,14.41
2022-09-10T10:11:14.534Z,14.47
2022-09-10T10:13:44.985Z,14.51
2022-09-10T10:16:26.916Z,14.56
2022-09-10T10:18:54.870Z,14.62
2022-09-10T10:21:31.840Z,14.69
2022-09-10T10:24:01.131Z,14.69
2022-09-10T10:26:36.436Z,14.71
2022-09-10T10:29:07.488Z,14.73
2022-09-10T10:31:38.982Z,14.74
2022-09-10T10:34:09.720Z,14.75
2022-09-10T10:36:56.416Z,14.76
2022-09-10T10:39:42.909Z,14.79
2022-09-10T10:42:54.309Z,14.83
2022-09-10T10:45:37.407Z,14.85
2022-09-10T10:48:28.652Z,14.88
2022-09-10T10:51:05.186Z,14.86
2022-09-10T10:54:26.021Z,14.83
2022-09-10T10:57:00.044Z,14.79
2022-09-10T10:59:44.996Z,14.76
2022-09-10T11:02:22.087Z,14.72
2022-09-10T11:04:55.355Z,14.61
2022-09-10T11:07:33.009Z,14.52
2022-09-10T11:10:34.212Z,14.43
2022-09-10T11:13:25.837Z,14.38
2022-09-10T11:16:01.413Z,14.36
2022-09-10T11:18:50.846Z,14.35
2022-09-10T11:21:35.001Z,14.36
2022-09-10T11:24:16.795Z,14.38
2022-09-10T11:26:51.293Z,14.39
2022-09-10T11:29:44.246Z,14.39
2022-09-10T11:32:15.415Z,14.42
2022-09-10T11:34:58.954Z,14.44
2022-09-10T11:37:30.907Z,14.47
2022-09-10T11:40:11.000Z,14.49
2022-09-10T11:42:43.885Z,14.48
2022-09-10T11:45:41.416Z,14.47
2022-09-10T11:48:29.237Z,14.45
2022-09-10T11:51:13.423Z,14.42
2022-09-10T11:53:41.761Z,14.39
2022-09-10T11:56:21.619Z,14.43
2022-09-10T11:59:18.249Z,14.45
2022-09-10T12:01:52.282Z,14.45
2022-09-10T12:04:26.164Z,14.47
2022-09-10T12:07:02.836Z,14.48
2022-09-10T12:09:54.488Z,14.50
2022-09-10T12:12:35.018Z,14.49
2022-09-10T12:15:08.821Z,14.49
2022-09-10T12:17:42.116Z,14.47
2022-09-10T12:20:18.768Z,14.49
2022-09-10T12:22:53.778Z,14.50
2022-09-10T12:25:21.801Z,14.49
2022-09-10T12:28:01.130Z,14.49
2022-09-10T12:30:33.426Z,14.49
2022-09-10T12:33:13.678Z,14.50
2022-09-10T12:35:49.950Z,14.49
2022-09-10T12:38:46.339Z,14.48
2022-09-10T12:41:23.115Z,14.42
2022-09-10T12:43:55.394Z,14.40
2022-09-10T12:46:25.781Z,14.39
2022-09-10T12:48:56.755Z,14.39
2022-09-10T12:51:36.607Z,14.42
2022-09-10T12:54:04.721Z,14.46
2022-09-10T12:56:52.905Z,14.48
2022-09-10T12:59:32.984Z,14.48
2022-09-10T13:02:01.526Z,14.52
2022-09-10T13:04:35.254Z,14.54
2022-09-10T13:07:21.553Z,14.57
2022-09-10T13:10:07.469Z,14.58
2022-09-10T13:12:40.645Z,14.58
2022-09-10T13:15:24.199Z,14.60
2022-09-10T13:17:52.136Z,14.63
2022-09-10T13:20:20.118Z,14.64
2022-09-10T13:23:04.421Z,14.65
2022-09-10T13:25:51.568Z,14.64
2022-09-10T13:28:33.054Z,14.63
2022-09-10T13:31:08.527Z,14.60
2022-09-10T13:34:28.996Z,14.57
2022-09-10T13:37:12.450Z,14.53
2022-09-10T13:40:06.429Z,14.51
2022-09-10T13:43:05.605Z,14.47
2022-09-10T13:45:56.576Z,14.42
2022-09-10T13:48:30.880Z,14.41
2022-09-10T13:51:20.636Z,14.39
2022-09-10T13:53:49.908Z,14.36
2022-09-10T13:56:29.630Z,14.34
2022-09-10T13:59:02.221Z,14.33
2022-09-10T14:01:54.028Z,14.34
2022-09-10T14:04:45.058Z,14.34
2022-09-10T14:07:16.026Z,14.31
2022-09-10T14:10:06.190Z,14.34
2022-09-10T14:12:35.797Z,14.35
2022-09-10T14:15:06.484Z,14.35
2022-09-10T14:17:37.131Z,14.36
2022-09-10T14:20:18.268Z,14.38
2022-09-10T14:22:46.619Z,14.42
2022-09-10T14:25:36.087Z,14.46
2022-09-10T14:28:16.650Z,14.49
2022-09-10T14:30:46.139Z,14.49
2022-09-10T14:33:32.910Z,14.52
2022-09-10T14:36:16.497Z,14.54
2022-09-10T14:38:54.092Z,14.53
2022-09-10T14:41:26.133Z,14.52
2022-09-10T14:44:14.757Z,14.51
2022-09-10T14:47:12.884Z,14.51
2022-09-10T14:49:42.226Z,14.51
2022-09-10T14:52:12.116Z,14.49
2022-09-10T14:54:40.706Z,14.48
2022-09-10T14:57:14.836Z,14.47
2022-09-10T14:59:45.301Z,14.44
2022-09-10T15:02:23.901Z,14.43
2022-09-10T15:04:52.255Z,14.42
2022-09-10T15:07:20.954Z,14.41
2022-09-10T15:09:48.962Z,14.41
2022-09-10T15:12:22.974Z,14.42
2022-09-10T15:14:52.094Z,14.42
2022-09-10T15:17:20.440Z,14.41
2022-09-10T15:19:48.822Z,14.42
2022-09-10T15:22:23.494Z,14.42
2022-09-10T15:25:09.067Z,14.40
2022-09-10T15:27:38.309Z,14.40
2022-09-10T15:30:07.350Z,14.39
2022-09-10T15:32:35.386Z,14.36
2022-09-10T15:35:05.360Z,14.33
2022-09-10T15:37:33.377Z,14.29
2022-09-10T15:40:01.550Z,14.25
2022-09-10T15:42:30.856Z,14.21
2022-09-10T15:44:58.919Z,14.16
2022-09-10T15:47:27.705Z,14.12
2022-09-10T15:49:56.472Z,14.09
2022-09-10T15:52:24.661Z,14.07
2022-09-10T15:54:52.732Z,14.05
2022-09-10T15:57:20.911Z,14.05
2022-09-10T15:59:49.677Z,14.05
2022-09-10T16:02:18.688Z,14.06
2022-09-10T16:04:46.759Z,14.05
2022-09-10T16:07:14.931Z,14.05
2022-09-10T16:09:43.835Z,14.05
2022-09-10T16:12:12.405Z,14.05
2022-09-10T16:14:40.368Z,14.05
2022-09-10T16:17:10.745Z,14.05
2022-09-10T16:19:39.275Z,14.07
2022-09-10T16:22:08.286Z,14.08
2022-09-10T16:24:36.339Z,14.09
2022-09-10T16:27:04.613Z,14.09
2022-09-10T16:29:35.666Z,14.09
2022-09-10T16:32:03.726Z,14.09
2022-09-10T16:34:32.219Z,14.10
2022-09-10T16:37:00.379Z,14.11
2022-09-10T16:39:28.448Z,14.11
2022-09-10T16:41:56.522Z,14.12
2022-09-10T16:44:25.025Z,14.13
2022-09-10T16:46:53.073Z,14.12
2022-09-10T16:49:21.343Z,14.14
2022-09-10T16:51:49.464Z,14.16
2022-09-10T16:54:22.510Z,14.15
2022-09-10T16:56:51.394Z,14.14
2022-09-10T16:59:22.739Z,14.12
2022-09-10T17:01:52.288Z,14.11
2022-09-10T17:04:28.953Z,14.11
2022-09-10T17:06:58.277Z,14.11
2022-09-10T17:09:26.705Z,14.11
2022-09-10T17:11:55.506Z,14.11
2022-09-10T17:14:24.680Z,14.11
2022-09-10T17:16:53.477Z,14.11
2022-09-10T17:19:24.062Z,14.11
2022-09-10T17:21:55.890Z,14.11
2022-09-10T17:24:26.489Z,14.11
2022-09-10T17:26:55.582Z,14.10
2022-09-10T17:29:25.906Z,14.10
2022-09-10T17:31:55.611Z,14.09
2022-09-10T17:34:24.829Z,14.09
2022-09-10T17:36:53.294Z,14.08
2022-09-10T17:39:21.572Z,14.08
2022-09-10T17:41:50.355Z,14.08
2022-09-10T17:44:18.325Z,14.05
2022-09-10T17:46:46.748Z,14.03
2022-09-10T17:49:17.008Z,14.00
2022-09-10T17:51:46.583Z,14.01
2022-09-10T17:54:15.441Z,14.00
2022-09-10T17:56:43.904Z,13.98
2022-09-10T17:59:14.425Z,13.96
2022-09-10T18:01:43.271Z,13.94
2022-09-10T18:04:13.094Z,13.92
2022-09-10T18:06:41.442Z,13.92
2022-09-10T18:09:09.985Z,13.92
2022-09-10T18:11:40.460Z,13.92
2022-09-10T18:14:13.548Z,13.94
2022-09-10T18:16:42.286Z,13.92
2022-09-10T18:19:15.432Z,13.92
2022-09-10T18:21:45.799Z,13.91
2022-09-10T18:24:24.282Z,13.89
2022-09-10T18:26:57.476Z,13.87
2022-09-10T18:29:28.442Z,13.84
2022-09-10T18:32:00.916Z,13.85
2022-09-10T18:34:31.148Z,13.83
2022-09-10T18:37:01.150Z,13.85
2022-09-10T18:39:31.546Z,13.83
2022-09-10T18:42:01.239Z,13.84
2022-09-10T18:44:35.319Z,13.84
2022-09-10T18:47:08.995Z,13.85
2022-09-10T18:49:46.564Z,13.85
2022-09-10T18:52:14.768Z,13.85
2022-09-10T18:54:46.621Z,13.83
2022-09-10T18:57:14.905Z,13.83
2022-09-10T18:59:42.894Z,13.82
2022-09-10T19:02:13.157Z,13.81
2022-09-10T19:05:07.293Z,13.80
2022-09-10T19:07:29.817Z,13.79
2022-09-10T19:09:57.882Z,13.76
2022-09-10T19:12:26.669Z,13.71
2022-09-10T19:14:54.609Z,13.68
2022-09-10T19:17:22.913Z,13.64
2022-09-10T19:19:51.089Z,13.62
2022-09-10T19:22:19.083Z,13.60
2022-09-10T19:24:55.795Z,13.58
2022-09-10T19:27:24.980Z,13.58
2022-09-10T19:29:53.918Z,13.57
2022-09-10T19:32:22.119Z,13.53
2022-09-10T19:34:51.477Z,13.51
2022-09-10T19:37:21.010Z,13.49
2022-09-10T19:39:49.470Z,13.47
2022-09-10T19:42:18.055Z,13.44
2022-09-10T19:44:46.538Z,13.40
2022-09-10T19:47:14.590Z,13.38
2022-09-10T19:49:42.583Z,13.35
2022-09-10T19:52:11.240Z,13.32
2022-09-10T19:54:39.332Z,13.30
2022-09-10T19:57:07.441Z,13.25
2022-09-10T19:59:35.779Z,13.24
2022-09-10T20:02:03.983Z,13.22
2022-09-10T20:04:33.254Z,13.20
2022-09-10T20:07:01.731Z,13.19
2022-09-10T20:09:29.904Z,13.17
2022-09-10T20:11:57.971Z,13.15
2022-09-10T20:14:26.045Z,13.13
2022-09-10T20:16:54.946Z,13.13
2022-09-10T20:19:23.234Z,13.14
2022-09-10T20:21:51.795Z,13.15
2022-09-10T20:24:19.864Z,13.14
2022-09-10T20:26:49.264Z,13.13
2022-09-10T20:29:19.504Z,13.13
2022-09-10T20:31:48.805Z,13.14
2022-09-10T20:34:20.351Z,13.15
2022-09-10T20:36:53.940Z,13.16
2022-09-10T20:39:27.126Z,13.16
2022-09-10T20:41:55.202Z,13.17
2022-09-10T20:44:23.697Z,13.16
2022-09-10T20:46:52.160Z,13.14
2022-09-10T20:49:20.843Z,13.13
2022-09-10T20:51:48.811Z,13.11
2022-09-10T20:54:18.625Z,13.11
2022-09-10T20:56:47.001Z,13.10
2022-09-10T20:59:17.041Z,13.09
2022-09-10T21:01:47.073Z,13.07
2022-09-10T21:04:15.263Z,13.06
2022-09-10T21:06:43.394Z,13.03
2022-09-10T21:09:12.732Z,13.02
2022-09-10T21:11:41.159Z,13.00
2022-09-10T21:14:11.756Z,12.98
2022-09-10T21:16:47.443Z,12.97
2022-09-10T21:19:17.352Z,12.94
2022-09-10T21:21:48.873Z,12.94
2022-09-10T21:24:19.735Z,12.91
2022-09-10T21:26:49.299Z,12.88
2022-09-10T21:29:19.704Z,12.87
2022-09-10T21:31:50.870Z,12.85
2022-09-10T21:34:19.536Z,12.84
2022-09-10T21:36:48.182Z,12.83
2022-09-10T21:39:17.897Z,12.84
2022-09-10T21:41:50.326Z,12.84
2022-09-10T21:44:21.170Z,12.85
2022-09-10T21:46:49.886Z,12.84
2022-09-10T21:49:20.408Z,12.83
2022-09-10T21:51:48.582Z,12.81
2022-09-10T21:54:21.464Z,12.81
2022-09-10T21:56:50.704Z,12.82
2022-09-10T21:59:21.651Z,12.80
2022-09-10T22:01:50.126Z,12.80
2022-09-10T22:04:22.547Z,12.80
2022-09-10T22:06:54.617Z,12.81
2022-09-10T22:09:22.793Z,12.81
2022-09-10T22:11:54.304Z,12.80
2022-09-10T22:14:24.302Z,12.79
2022-09-10T22:16:52.980Z,12.78
2022-09-10T22:19:24.106Z,12.77
2022-09-10T22:21:57.480Z,12.77
2022-09-10T22:24:26.412Z,12.77
2022-09-10T22:26:54.783Z,12.76
2022-09-10T22:29:23.022Z,12.76
2022-09-10T22:31:51.196Z,12.76
2022-09-10T22:34:19.797Z,12.78
2022-09-10T22:36:49.514Z,12.78
2022-09-10T22:39:20.122Z,12.79
2022-09-10T22:41:50.239Z,12.80
2022-09-10T22:44:19.539Z,12.81
2022-09-10T22:46:48.163Z,12.82
2022-09-10T22:49:17.188Z,12.81
2022-09-10T22:51:45.335Z,12.82
2022-09-10T22:54:14.166Z,12.81
2022-09-10T22:56:42.243Z,12.81
2022-09-10T22:59:14.917Z,12.80
2022-09-10T23:01:47.701Z,12.79
2022-09-10T23:04:16.339Z,12.78
2022-09-10T23:06:44.770Z,12.76
2022-09-10T23:09:17.767Z,12.74
2022-09-10T23:11:46.025Z,12.72
2022-09-10T23:14:17.946Z,12.72
2022-09-10T23:16:51.920Z,12.71
2022-09-10T23:19:23.387Z,12.72
2022-09-10T23:21:54.633Z,12.72
2022-09-10T23:24:24.917Z,12.72
2022-09-10T23:26:54.050Z,12.72
2022-09-10T23:29:23.556Z,12.70
2022-09-10T23:31:54.467Z,12.69
2022-09-10T23:34:22.796Z,12.69
2022-09-10T23:36:51.898Z,12.68
2022-09-10T23:39:22.760Z,12.69
2022-09-10T23:41:54.212Z,12.69
2022-09-10T23:44:23.059Z,12.69
2022-09-10T23:46:51.565Z,12.69
2022-09-10T23:49:19.650Z,12.70
2022-09-10T23:51:49.459Z,12.69
2022-09-10T23:54:18.138Z,12.69
2022-09-10T23:56:46.215Z,12.68
2022-09-10T23:59:15.424Z,12.67
